EUROPE METAR - 19 Feb 2018 - 0143 UTC - RocketRoute WX - rrwx.com
EGPD 190120Z AUTO 18006KT 9000 NCD 05/04 Q1013 EGAA 190120Z 23007KT 4200 BR SCT001 OVC004 09/09 Q1016 EGKB   EGHH   EGGD 190120Z AUTO 24006KT 0100 R27/0350 FG VV/// 07/06 Q1018 EGFF 190120Z AUTO 25005KT 0200 R30/0500 FG VV/// 07/07 Q1018 EGCN 190120Z 19006KT 9000 -RA BKN040 07/07 Q1017 EGNV   EGNX 190120Z 20009KT 7000 -RA BKN006 BKN017 06/06 Q1017 RERA EGPH 190120Z 06001KT 1500 DZ OVC010 05/05 Q1014 EGTE   EGLF   EGPF 190120Z AUTO 04002KT 1000 BR OVC003 06/06 Q1014 EGJB   EGNJ   EGPE 190120Z AUTO 00000KT 6000 DZ OVC035/// 05/05 Q1012 EGJJ 190120Z AUTO 28004KT 0250 0200 R26///// FG SCT001/// OVC003/// 08/08 Q1019 EGPA 190120Z AUTO 13009KT 9999 BKN009/// 06/04 Q1013 EGNM 190120Z 23005KT 6000 -RADZ BKN005 06/06 Q1015 EGGP 190120Z 20004KT 0700 R27/0225 RADZ FG OVC001 08/07 Q1016 EGLC 190120Z AUTO VRB02KT 9999 OVC008 08/05 Q1019 EGKK 190120Z 22002KT 2000 BR BKN002 07/07 Q1018 EGLL 190120Z AUTO 22004KT 1100 R27R/P1500 -RADZ BKN002 OVC012 06/06 Q1019 TEMPO 4000 BKN006 EGGW 190120Z AUTO 21006KT 4100 -DZ OVC003 06/05 Q1018 EGSS 190120Z AUTO 18004KT 9999 BKN007 OVC010 06/05 Q1018 EGMD 190120Z AUTO 20007KT 9999 FEW003/// BKN006/// OVC010/// 08/07 Q1019 EGCC 190120Z AUTO 19004KT 150V220 1600 RADZ OVC002 07/07 Q1016 NOSIG EGMH   EGNT 190120Z VRB02KT 6000 -RA BKN012 06/05 Q1014 EGSH 190120Z AUTO 20006KT 9999 NCD 05/04 Q1018 EGPK 190050Z 24010KT 8000 -SHRA SCT007 09/09 Q1014 EGKA   EGHI   EGMC 190050Z 17003KT 9999 FEW008 BKN011 06/04 Q1019 EGPC 190120Z AUTO 15005KT 9999 FEW005/// 05/04 Q1012 LXGB 190050Z AUTO 07011KT 9999 // SCT010/// BKN021/// 14/12 Q1018 EDDB 190120Z 14005KT 9999 OVC040 00/M04 Q1025 NOSIG EDDW 190120Z AUTO 18002KT 9999 // OVC140/// M00/M03 Q1023 EDDC 190120Z 16007KT CAVOK M02/M05 Q1024 EDDL 190120Z 16010KT CAVOK 01/M03 Q1023 NOSIG EDFH 190120Z 15010KT 9999 BKN010 M03/M04 Q1021 EDDF 190120Z 03002KT 9999 SCT025 M01/M03 Q1023 NOSIG EDDH 190120Z 15005KT CAVOK M00/M03 Q1022 NOSIG EDDV 190120Z 18004KT CAVOK 00/M03 Q1023 EDAH   EDSB 190120Z AUTO 04003KT 5000 // OVC028/// 00/M00 Q1022 EDVK   EDDK 190120Z 12004KT 090V150 CAVOK M01/M03 Q1023 NOSIG ETNL 190120Z 19005KT 9999 OVC100 00/M03 Q1023 BLU EDDP 190120Z 17007KT CAVOK M02/M04 Q1024 NOSIG EDHL   EDDM 190120Z 05006KT 7000 MIFG NSC M05/M06 Q1021 R88/290095 TEMPO 3000 BCFG EDDG 190120Z 14003KT 110V190 CAVOK M01/M03 Q1023 NOSIG EDDN 190120Z 09005KT CAVOK M02/M05 Q1023 R28/29//95 EDLP 190120Z VRB01KT CAVOK M00/M04 Q1023 EDDR 190120Z AUTO 09005KT 060V140 9999 // ///////// M01/M04 Q1022 EDDS 190120Z 07006KT 9999 FEW018 BKN023 M00/M02 Q1021 EDXW   EDDT 190120Z 15005KT 9999 BKN039 01/M04 Q1025 LFLB 190130Z AUTO 03005KT 9999 FEW027 BKN037 OVC043 04/M01 Q1020 LFBZ 190130Z AUTO 31010KT 8000 -RA BKN008/// BKN013/// BKN019/// ///TCU 11/10 Q1021 TEMPO 1500 DZ OVC004 LFLC 190130Z AUTO 05002KT 6000 NSC M01/M02 Q1019 TEMPO 0600 BCFG BKN002 LFSB 190130Z AUTO 33004KT 4200 BR OVC004 01/M00 Q1021 TEMPO 0300 FZFG VV/// LFBL 190130Z AUTO 03003KT 0400 0350 R21/0400N R03/0550U FG VV/// 01/01 Q1019 NOSIG LFBI 190130Z AUTO 00000KT 0650 R21/0750N FG VV/// 01/01 Q1020 TEMPO 0400 FG LFBO 190130Z AUTO VRB01KT 4100 BR OVC003 07/06 Q1019 NOSIG LFRB 190130Z AUTO 33007KT 1100 1000 R25/1500D R07/P2000 BR VV/// 10/10 Q1020 TEMPO 2000 DZ LFLY 190130Z AUTO 36005KT 350V070 9999 OVC030 02/M02 Q1020 NOSIG LFRK 190130Z AUTO 16004KT 9999 OVC013 07/07 Q1019 LFMN 190130Z 33008KT 9999 BKN093 09/04 Q1015 NOSIG LFST 190130Z AUTO 02003KT 7000 OVC032 01/M01 Q1022 TEMPO 2000 BR OVC004 LFTW 190130Z AUTO 02009KT 9999 NSC 04/M01 Q1017 LFRH 190130Z AUTO 26002KT 6000 OVC012 10/09 Q1020 BECMG FEW010 SCT050 LFPB 190130Z AUTO 12003KT CAVOK 00/M01 Q1021 TEMPO 4000 BR LFQQ 190130Z AUTO 15009KT 6000 NSC 01/M01 Q1021 NOSIG LFAT 190130Z AUTO 12006KT 9999 BKN025 OVC036 05/02 Q1020 LFMT 190130Z AUTO 35007KT 9999 NSC 03/M01 Q1018 NOSIG LFBD 190130Z AUTO 12003KT 2500 -DZ BR BKN002 OVC007 09/09 Q1019 TEMPO 0500 FG LFRS 190130Z AUTO 16002KT 2700 BR OVC003 07/07 Q1019 TEMPO DZ LFKJ 190130Z AUTO 05006KT 9999 BKN064 BKN180 07/05 Q1013 TEMPO SHRA BKN014 LFPG 190130Z 13006KT 9000 NSC 01/M01 Q1021 NOSIG LFPO 190130Z 10002KT 6000 SCT009 BKN180 01/M00 Q1021 TEMPO 2500 BR LFRD 190130Z AUTO 27002KT 0650 0600 R35L/0750N FG VV/// 09/08 Q1019 TEMPO 0800 FG LFKB 190130Z AUTO 02009KT 9999 BKN030 BKN036 BKN045 09/05 Q1015 TEMPO BKN014 LFML 190130Z AUTO 17002KT 9999 NSC 02/M01 Q1017 NOSIG LFMP 190130Z AUTO 34010KT 9999 FEW027 09/05 Q1018 LFLL 190130Z 34004KT 9999 OVC029 02/M02 Q1020 NOSIG LFRN 190130Z AUTO 20002KT 2700 BR OVC002 08/07 Q1019 TEMPO VV/// LFOB 190130Z AUTO 12005KT 9000 OVC035 01/M00 Q1021 NOSIG LFPN 190130Z AUTO 12004KT 5000 BR NSC 01/00 Q1021 LFOT 190130Z AUTO 12003KT 7000 NSC 04/03 Q1020 TEMPO 2000 -RA BKN006 EBBR 190120Z 19006KT CAVOK 00/M02 Q1022 NOSIG EBCI 190120Z 18007KT 6000 NSC M01/M03 Q1021 NOSIG EBAW 190120Z AUTO VRB02KT 7000 // NCD M02/M04 Q1022 EBLG 190120Z 18007KT 8000 NSC M00/M03 Q1022 NOSIG EBOS 190120Z 17007KT CAVOK 02/M01 Q1021 NOSIG EHEH 190125Z AUTO 18003KT 9999 OVC220 M02/M03 Q1022 BLU EHGG 190125Z AUTO 19004KT 8000 NSC 01/M01 Q1021 EHBK 190125Z AUTO 14002KT 9000 NSC M01/M03 Q1022 EHRD 190125Z AUTO 19007KT 9999 NSC 03/M00 Q1021 NOSIG EHAM 190125Z 16006KT 7000 NSC 00/M01 Q1021 NOSIG ELLX 190120Z AUTO 09004KT 7000 OVC013/// M03/M04 Q1021 NOSIG LOWG 190120Z AUTO 09004KT 060V120 9999 SCT026 BKN036 M01/M05 Q1024 LOWI 190120Z AUTO VRB02KT 9000 FEW028 M02/M04 Q1020 LOWK 190120Z AUTO 06003KT 030V090 9999 FEW048 SCT050 BKN120 M00/M04 Q1023 LOWL 190120Z AUTO 08012KT 9999 NSC M01/M05 Q1023 LOWS 190120Z AUTO 09002KT 9000 NSC M04/M04 Q1021 LOWW 190120Z 35004KT CAVOK M04/M06 Q1026 R88/12//95 NOSIG LOAN   LOXZ   LSMA 190050Z AUTO 09002KT ////NDV OVC014 01/M01 Q1020 RMK MIS LFSB 190130Z AUTO 33004KT 4200 BR OVC004 01/M00 Q1021 TEMPO 0300 FZFG VV/// LSZB 190120Z AUTO 33004KT 6000 OVC022 00/M01 Q1019 LSZC 190120Z AUTO VRB01KT 4200 BR FEW019 OVC030 01/M01 Q1020 LSMD 190050Z AUTO VRB01KT 7000NDV OVC034 00/M02 Q1020 RMK LSME 190050Z AUTO 00000KT 5000NDV FEW011 OVC013 01/M01 Q1020 RMK LSZR 190120Z AUTO 25004KT 220V290 7000 OVC010 01/M01 Q1020 LSGG 190120Z AUTO VRB03KT 9999 BKN023 02/M02 Q1019 NOSIG LSZG 190120Z AUTO VRB01KT 8000 OVC029 01/M02 Q1020 LSGC 190120Z AUTO VRB01KT 9999 OVC007 M04/M05 Q1017 LSZL 190050Z AUTO VRB01KT 9999NDV -DZ FEW011 SCT017 BKN020 05/03 Q1020 RMK LSZA 190120Z AUTO 20004KT 9999 SCT014 BKN024 04/02 Q1020 LSMM 190050Z AUTO 10003KT 4600NDV BR FEW028 M02/M03 Q1019 RMK LSMP 190050Z AUTO VRB02KT 8000NDV BKN023 OVC027 01/M01 Q1020 RMK LSZS 190120Z AUTO 20001KT 9999 BKN039 M10/M12 Q1014 LSGS 190120Z AUTO 00000KT 9999 NCD 01/M01 Q1019 LSZH 190120Z 31005KT 5000 BR FEW008 OVC030 M01/M02 Q1020 NOSIG LEAL 190130Z 27003KT 9999 FEW050 SCT059 09/08 Q1018 NOSIG LEAM 190130Z AUTO VRB02KT 9999 BKN031/// OVC045/// 14/11 Q1018 LEAS 190130Z AUTO 26004KT 6000 FEW013/// SCT035/// BKN076/// 09/08 Q1024 LEBZ   LEBL 190130Z 33006KT 9999 FEW040 08/04 Q1017 NOSIG LEBB 190130Z AUTO 28003KT 230V320 9999 RA FEW009/// BKN013/// 11/10 Q1022 LEGR 190130Z AUTO 00000KT 9999 BKN057 OVC070 08/06 Q1017 LEIB   LEJR 190130Z AUTO 00000KT CAVOK 09/07 Q1018 LELN   LEMD 190130Z 03001KT 9999 FEW070 08/03 Q1020 NOSIG LEMG 190130Z 33003KT 290V010 4000 -RA BR BKN018 BKN026 12/11 Q1018 NOSIG LEMH 190130Z AUTO 34003KT CAVOK 07/05 Q1018 LELC   LEPA 190130Z 05001KT 9999 FEW020 05/04 Q1018 NOSIG LERS 190130Z AUTO 32005KT 9999 NCD 10/05 Q1017 LEXJ 190130Z AUTO 28007KT 6000 -RA SCT009/// BKN015/// BKN025/// 11/10 Q1023 LEST 190130Z 07003KT 9000 FEW005 08/07 Q1024 NOSIG LEZL 190130Z AUTO VRB01KT 7000 NCD 08/07 Q1018 LEVC 190130Z 32004KT CAVOK 08/07 Q1018 NOSIG LEVD   LEVT 190130Z 30007KT 9999 SCT015 BKN035 07/06 Q1021 LEZG 190130Z 28014KT 9999 FEW040 SCT085 10/06 Q1019 GCLP 190130Z 36009KT 9999 FEW030 15/09 Q1018 NOSIG GCRR 190100Z 04004KT 9999 SCT025 15/10 Q1018 GCXO 190130Z AUTO 31010KT 280V340 9999 BKN013/// OVC021/// 11/09 Q1019 GCTS 190130Z 06004KT 9999 SCT033 16/09 Q1018 NOSIG LPFR 190130Z 05003KT CAVOK 10/07 Q1018 LPPT 190130Z 02008KT CAVOK 11/03 Q1020 LPMA 190130Z 02012KT 9999 SCT015 FEW018TCU 15/11 Q1021 LPPD 190130Z 14004KT 9999 FEW018 BKN030 15/11 Q1025 LPPR 190130Z 03003KT CAVOK 09/07 Q1022 LPPS 190130Z 03010KT 9999 SCT014 14/09 Q1021 LPAZ 190100Z 09006KT CAVOK 11/07 Q1026 LPST   LIEA 190120Z VRB01KT CAVOK 10/09 Q1014 LIBD 190120Z 31004KT 5000 DZ FEW006 BKN030 09/08 Q1013 LIME 190120Z 03003KT 9999 -RA SCT035 BKN045 03/01 Q1020 NOSIG LIPE 190120Z 34003KT 310V010 7000 -RA SCT008 BKN015 04/03 Q1020 LIRN 190120Z 02005KT 4000 -DZ BR SCT020 BKN035 11/10 Q1012 NOSIG LICC 190120Z 24003KT 8000 BKN060 10/09 Q1012 LIRA 190120Z 02004KT 320V060 8000 3000NW FEW005 05/04 Q1012 LIBC   LIEE 190120Z 35004KT 9999 FEW020 08/06 Q1014 LIPY 190050Z 08003KT 040V120 5000 -RA BR SCT006 BKN020 07/06 Q1017 LIRF 190120Z VRB03KT 4000 BCFG SCT020 05/05 Q1013 NOSIG LIMJ 190120Z VRB04KT 9999 SCT050 07/01 Q1017 LICD   LIML 190120Z 07002KT 8000 FEW020 BKN050 05/01 Q1020 NOSIG LIMC 190120Z 04003KT 9999 BKN035 04/01 Q1020 NOSIG LIEO 190120Z 26005KT 9999 -RA SCT030 10/08 Q1014 LICJ 190120Z 20009KT 9999 SCT018 13/10 Q1012 LIBP 190113Z AUTO 29009KT 9999 -RA OVC011/// 08/06 Q1015 LIRP 190115Z 09008KT 9999 FEW050 BKN060 08/M01 Q1016 NOSIG LICR   LIMF 190120Z 34006KT 4500 -DZ SCT010 BKN020 03/03 Q1020 REDZ LIRU   LIPZ 190120Z 07015KT 9999 BKN060 05/M01 Q1020 NOSIG EETN 190120Z 01005KT 9999 -SN OVC014 M07/M09 Q1023 R08/19//95 EETU 190050Z AUTO 29004KT 6000 -SN BKN007/// BKN008/// OVC010/// M08/M11 Q1021 EVRA 190120Z 19003KT 9999 SCT046 M05/M05 Q1022 R36/590238 NOSIG EVLA 190120Z AUTO 00000KT 0400 R24/0400N R06/0800D FG FEW003 BKN030 BKN140 M02/M02 Q1022 EYKA 190120Z AUTO 27006KT 7000 -SHSN OVC004/// M02/M04 Q1022 EYSA 190120Z AUTO 27004KT 9999NDV FEW010 BKN072 OVC088 M03/M03 Q1022 RESN R32R/29//95 R32L/490591 EYPA 190139Z AUTO 19003KT 2500 -SHRA FEW001/// SCT018/// BKN042/// M01/M01 Q1023 EYVI 190120Z 28005KT 250V310 9000 -SN OVC005 M03/M03 Q1021 R01/5/0393 TEMPO 0800 +SN BKN005 UMKK 190100Z 27006MPS 4000 -SHSN BKN007 BKN020CB 01/M00 Q1024 R24/19//60 NOSIG RMK QFE767/1023 EKYT 190120Z AUTO 22006KT 2600NDV -SHRA BR FEW006/// BKN009/// OVC011/// 02/02 Q1019 EKAH 190120Z AUTO 22004KT 190V260 9000NDV OVC029/// 02/00 Q1021 EKBI 190120Z AUTO 19003KT 6000NDV -UP OVC041/// 01/M00 Q1021 EKRN 190120Z AUTO 22011KT 9999NDV BKN042/// 02/M01 Q1024 EKEB 190120Z AUTO 17006KT 1400NDV R08/P1500N R26/P1500N RA BKN018/// 02/01 Q1021 EKKA 190120Z AUTO 17004KT 150V210 3700NDV -RA BR OVC013/// 02/01 Q1020 EKCH 190120Z 22005KT CAVOK 01/M01 Q1022 NOSIG EKOD   EKRK 190120Z AUTO 19002KT 9999NDV FEW100/// BKN120/// M00/M02 Q1022 EKSP 190120Z 23002KT 9999 OVC040 00/M01 Q1021 EKVD   ESTA 190120Z AUTO 16005KT 9999 BKN120/// M02/M03 Q1021 ESNZ 190120Z AUTO 12011KT 9999 -SN OVC034/// M06/M07 Q1022 ESGP   ESGG 190120Z 20004KT 0900 R03/P1500N R21/P1500N FZFG VV003 M00/M01 Q1019 R21/690195 ESMT 190120Z AUTO 22006KT 9999 FEW011/// BKN045/// BKN095/// 01/M00 Q1021 ESMQ 190120Z AUTO 24003KT 2400 -SN FEW017/// SCT029/// M00/M00 Q1023 REUP ESNQ 190120Z AUTO 00000KT 8000 -SN BKN004/// M23/M26 Q1024 ESPA 190120Z AUTO 34002KT 9999 -SHSN FEW025/// OVC050/// M13/M14 Q1028 ESMS 190120Z 20004KT CAVOK M02/M02 Q1022 R17/15//95 ESSL 190120Z AUTO 15003KT 2700 -SN FEW003/// OVC019/// M00/M00 Q1020 ESSA 190120Z 07008KT 1800 -SN BKN005 BKN022 M03/M03 Q1022 R01L/620267 R01R/SNOCLO R08/620164 TEMPO 5000 ESSB 190120Z AUTO 07005KT 5000 -RASN OVC005/// M01/M01 Q1022 ESKN 190120Z 10003KT 9000 OVC040 M01/M02 Q1021 R26/290195 ESNU 190120Z 05003KT 9999 SG BKN003 OVC006 M09/M10 Q1027 R14/71//65 ESSV 190120Z AUTO 22006KT 7000 -SN SCT009/// BKN015/// OVC022/// 00/M01 Q1022 RESG REFZUP ENAN 190120Z AUTO 19011KT 9999 NCD M06/M09 Q1024 ENAT 190050Z AUTO 18005KT 150V210 9999 NCD M19/M22 Q1030 RMK WIND 700FT 18013KT ENHF 190120Z 05003KT CAVOK M09/M12 Q1027 RMK WIND 1254FT VRB01KT ENDU 190120Z AUTO VRB01KT 9999 NCD M24/M26 Q1026 RMK WIND 1100FT 13008KT WIND 2200FT 13011KT ENBO 190050Z 08010KT 9999 FEW040 BKN070 M00/M05 Q1023 ENEV 190120Z AUTO 00000KT 9999 OVC062/// M13/M15 Q1025 RMK WIND 1400FT 14015KT ENBR 190050Z VRB02KT CAVOK M01/M01 Q1019 RMK WIND 1200FT 12007KT ENFL 190120Z AUTO 10008KT 9999NDV FEW049/// 02/01 Q1020 ENGM 190120Z 03005KT 7000 -SN FEW021 BKN027 M04/M05 Q1019 ENHD 190120Z AUTO 10009KT 9999 NCD 00/M00 Q1018 ENCN 190120Z AUTO 06006KT 0200 R03/0800D R21/1800D BCFG FEW000/// SCT007/// M01/M01 Q1019 ENTC 190050Z VRB03KT CAVOK M11/M15 Q1026 RMK WIND 2600FT 13007KT ENFB 190120Z AUTO 13008KT //// OVC054/// 05/03 Q1018 W///S4 ENSB 190050Z 16003KT 110V190 9999 FEW012 BKN016 M10/M12 Q1032 RMK WIND 1400FT 21004KT ENNK   ENRO 190120Z AUTO 10003KT 9999NDV -SHSN OVC005/// M09/M10 Q1019 ENRY 190120Z AUTO 35008KT 9999NDV SCT005/// BKN013/// OVC024/// M00/M01 Q1020 ENZV 190050Z 09002KT 9999 BCFG NSC M02/M02 Q1019 ENVA 190050Z 10007KT CAVOK M11/M13 Q1023 RMK WIND 670FT 14009KT ENAL 190120Z AUTO 16005KT 9999 NCD M01/M01 Q1020 EFET 190120Z AUTO 00000KT 9999 FEW004 M25/M27 Q1027 EFTP 190120Z AUTO VRB03KT CAVOK M17/M20 Q1024 EFTU 190120Z AUTO 05003KT 020V080 6000 -SN OVC005/// M09/M10 Q1024 BIAR 190100Z 16011KT 9999 -RA BKN026 OVC035 03/M01 Q1003 BIEG 190100Z 03006KT 9999 -SN SCT010 BKN022 OVC035 M01/M04 Q1008 R04/710095 BIKF 190130Z 12032G44KT 5000 RA BKN014 OVC032 05/04 Q0989 BIRK 190100Z 09018KT 9999 -RA FEW020 SCT034 OVC058 05/00 Q0991 BGJN 190050Z AUTO 02006KT 9999NDV OVC013/// M15/M18 Q1008 BGSF 190050Z AUTO 05006KT 020V080 9999NDV FEW080/// SCT100/// BKN120/// M26/M29 Q1007 BGKK   BGBW 190050Z AUTO 07005KT 9999NDV BKN100/// BKN110/// M01/M09 Q0988 BGGH 190050Z AUTO 06009KT 9999NDV NCD M11/M13 Q0996 BGTL 190056Z AUTO 09009KT 9999 SCT060 M26/M28 A2974 RMK AO2 SLP064 T12591284 TSNO $ BGSS   EIDW 190130Z 26012KT 9000 FEW003 SCT005 BKN008 10/09 Q1017 NOSIG EINN 190130Z 24006KT 9999 SCT008 BKN010 09/08 Q1019 TEMPO BKN008 EICK 190130Z 26004KT 230V300 0500 R17/1200U R35/1000D FG BKN001 BKN005 07/07 Q1019 NOSIG EIKN   EPGD 190130Z 24004KT 9999 OVC042 M00/M02 Q1024 EPKK 190130Z 03002KT 9999 BKN033 M01/M06 Q1026 EPKT 190130Z 01002KT 9999 OVC030 M02/M05 Q1026 EPMO 190130Z 28006KT CAVOK M01/M02 Q1026 EPPO 190130Z 14005KT 8000 BKN036 00/M03 Q1026 EPWA 190130Z 23004KT CAVOK M01/M03 Q1026 NOSIG LGAV 190120Z 01005KT 9999 SCT018 SCT025 09/07 Q1015 NOSIG LGIR 190120Z 17004KT 9999 FEW020 SCT080 10/08 Q1014 NOSIG LGKO 190050Z /////KT CAVOK 12/09 Q1012 LGMK   LGRP 190120Z 25006KT CAVOK 14/11 Q1011 NOSIG LGSA 190120Z 00000KT 9999 FEW020 SCT100 09/08 Q1014 LGSR   LGTS 190120Z VRB02KT 9999 FEW010 SCT025 09/06 Q1016 NOSIG LTAI 190120Z 36006KT CAVOK 07/00 Q1012 NOSIG RMK RWY18C 33003KT RWY36R 35007KT RWY18L 35004KT 310V020 LTBA 190120Z 04009KT CAVOK 07/04 Q1018 NOSIG RMK RWY17L 05008KT RWY05 03010KT RWY23 05009KT LTBJ 190120Z 24005KT CAVOK 07/05 Q1013 NOSIG RMK RWY16 34004KT 240V010 LTBS 190120Z 06004KT CAVOK 08/03 Q1012 NOSIG RMK RWY19 07004KT LMML 190115Z 27005KT 9999 FEW015 BKN033 12/11 Q1013 NOSIG LLBG 190120Z 17006KT 9999 BKN030 13/10 Q1015 NOSIG LLSD   GMAD 190100Z 08008KT 5000 SCT006 SCT083 13/11 Q1016 NOSIG GMMN 190130Z /////KT 0300 R35R/0275V0600D FG SCT004 06/06 Q1018 NOSIG GMMX 190130Z 00000KT CAVOK 11/05 Q1016 NOSIG HECA 190100Z 11004KT CAVOK 14/10 Q1016 NOSIG HEGN 190100Z 28008KT CAVOK 15/06 Q1016 NOSIG HELX 190100Z 00000KT CAVOK 12/06 Q1016 NOSIG HESH 190100Z 35009KT CAVOK 16/06 Q1015 NOSIG LBSF 190130Z 28007KT 8000 -RA SCT008 OVC016 03/03 Q1018 R99/29//95 NOSIG LCLK 190130Z 34002KT CAVOK 09/09 Q1013 NOSIG LDZA 190130Z 06006KT 030V100 9999 OVC045 02/M03 Q1024 NOSIG LHBP 190130Z 33004KT CAVOK M04/M05 Q1025 NOSIG LJLJ 190130Z 31002KT 5000 BR FEW002 BKN045 OVC100 M01/M02 Q1022 NOSIG LKPR 190130Z 12005KT 9999 BKN028 M01/M04 Q1024 NOSIG LROP 190130Z 05015KT 7000 -RASN BKN008 OVC017 01/M00 Q1022 R88/29//95 BECMG 5000 -SN LYBE 190130Z 32005KT CAVOK M01/M02 Q1023 NOSIG LZIB 190130Z VRB01KT 9999 BKN041 M01/M06 Q1025 R88/CLRD// UKBB 190130Z 30002MPS 250V320 9999 OVC032 M03/M05 Q1022 R36R/190050 R36L/190060 NOSIG ULLI 190130Z 28003MPS 5000 -SN SCT010 OVC018 M05/M07 Q1020 R28L/490536 NOSIG ULMM 190130Z 16001MPS 9999 BKN006 M14/M16 Q1026 R31/420155 NOSIG RMK OBST OBSC QFE762 UMKK 190100Z 27006MPS 4000 -SHSN BKN007 BKN020CB 01/M00 Q1024 R24/19//60 NOSIG RMK QFE767/1023 UUEE 190130Z 06002MPS 2000 -SN BR OVC007 M05/M05 Q1014 R06R/550345 R06L/520336 NOSIG UUWW 190130Z 12001MPS 1600 1300SW R24/P2000N -SN BR SCT007 BKN030 M04/M05 Q1014 R24/520242 NOSIG
RocketRoute WX - rrwx.com weather for pilots